createdAt,value
2022-09-16T00:01:38.648Z,1.47
2022-09-16T00:04:07.360Z,1.70
2022-09-16T00:06:35.051Z,1.60
2022-09-16T00:09:02.468Z,1.50
2022-09-16T00:11:30.369Z,1.47
2022-09-16T00:13:57.812Z,1.50
2022-09-16T00:16:26.911Z,1.47
2022-09-16T00:18:55.324Z,1.60
2022-09-16T00:21:24.099Z,1.43
2022-09-16T00:23:51.489Z,1.90
2022-09-16T00:26:19.190Z,1.60
2022-09-16T00:28:48.871Z,1.60
2022-09-16T00:31:16.360Z,1.63
2022-09-16T00:33:43.835Z,1.47
2022-09-16T00:36:12.461Z,1.67
2022-09-16T00:38:41.732Z,1.60
2022-09-16T00:41:09.845Z,1.80
2022-09-16T00:43:50.874Z,1.50
2022-09-16T00:46:20.864Z,1.57
2022-09-16T00:48:48.736Z,1.57
2022-09-16T00:51:16.710Z,1.40
2022-09-16T00:53:46.892Z,1.70
2022-09-16T00:56:15.010Z,1.60
2022-09-16T00:58:45.227Z,1.90
2022-09-16T01:01:12.731Z,1.67
2022-09-16T01:03:43.128Z,1.63
2022-09-16T01:06:10.720Z,1.50
2022-09-16T01:08:38.240Z,1.70
2022-09-16T01:11:07.070Z,1.60
2022-09-16T01:13:34.568Z,1.53
2022-09-16T01:16:07.469Z,1.53
2022-09-16T01:18:38.422Z,1.80
2022-09-16T01:21:19.677Z,1.33
2022-09-16T01:24:04.045Z,1.80
2022-09-16T01:26:45.203Z,1.60
2022-09-16T01:29:25.510Z,1.50
2022-09-16T01:31:55.831Z,1.50
2022-09-16T01:34:26.949Z,1.70
2022-09-16T01:37:00.276Z,1.60
2022-09-16T01:39:31.304Z,1.53
2022-09-16T01:42:05.494Z,1.40
2022-09-16T01:44:40.133Z,1.53
2022-09-16T01:47:13.506Z,1.87
2022-09-16T01:49:45.500Z,1.80
2022-09-16T01:52:18.223Z,1.60
2022-09-16T01:54:48.535Z,1.70
2022-09-16T01:57:19.405Z,1.40
2022-09-16T01:59:49.514Z,1.53
2022-09-16T02:02:20.322Z,1.60
2022-09-16T02:04:49.602Z,1.60
2022-09-16T02:07:18.946Z,1.93
2022-09-16T02:09:50.554Z,1.50
2022-09-16T02:12:20.087Z,1.50
2022-09-16T02:14:49.047Z,1.50
2022-09-16T02:17:19.865Z,1.70
2022-09-16T02:19:49.844Z,1.50
2022-09-16T02:22:19.083Z,1.90
2022-09-16T02:24:47.718Z,1.67
2022-09-16T02:27:16.778Z,1.60
2022-09-16T02:29:45.579Z,1.70
2022-09-16T02:32:13.271Z,1.50
2022-09-16T02:34:43.814Z,1.63
2022-09-16T02:37:13.957Z,1.70
2022-09-16T02:39:43.724Z,1.60
2022-09-16T02:42:11.772Z,1.43
2022-09-16T02:44:39.253Z,1.60
2022-09-16T02:47:10.653Z,1.80
2022-09-16T02:49:42.242Z,1.90
2022-09-16T02:52:15.362Z,1.57
2022-09-16T02:54:48.094Z,1.70
2022-09-16T02:57:15.602Z,1.50
2022-09-16T02:59:43.152Z,1.40
2022-09-16T03:02:10.716Z,1.80
2022-09-16T03:04:38.571Z,1.73
2022-09-16T03:07:07.450Z,1.50
2022-09-16T03:09:37.868Z,2.07
2022-09-16T03:12:10.903Z,1.70
2022-09-16T03:14:53.840Z,1.80
2022-09-16T03:17:28.327Z,1.63
2022-09-16T03:20:00.275Z,2.00
2022-09-16T03:22:33.362Z,1.70
2022-09-16T03:25:06.290Z,1.70
2022-09-16T03:27:36.856Z,1.93
2022-09-16T03:30:05.586Z,1.37
2022-09-16T03:32:35.787Z,1.50
2022-09-16T03:35:05.280Z,1.50
2022-09-16T03:37:35.480Z,1.53
2022-09-16T03:40:06.512Z,1.70
2022-09-16T03:42:34.055Z,1.67
2022-09-16T03:45:01.467Z,1.90
2022-09-16T03:47:28.859Z,1.83
2022-09-16T03:49:56.367Z,1.63
2022-09-16T03:52:23.827Z,1.87
2022-09-16T03:54:51.223Z,1.63
2022-09-16T03:57:19.941Z,1.60
2022-09-16T03:59:47.340Z,1.63
2022-09-16T04:02:14.890Z,2.13
2022-09-16T04:04:42.978Z,1.87
2022-09-16T04:07:10.394Z,1.90
2022-09-16T04:09:38.247Z,1.90
2022-09-16T04:12:07.584Z,1.70
2022-09-16T04:14:36.469Z,1.83
2022-09-16T04:17:03.948Z,1.77
2022-09-16T04:19:31.339Z,2.00
2022-09-16T04:21:58.740Z,1.90
2022-09-16T04:24:26.147Z,1.83
2022-09-16T04:26:53.602Z,1.70
2022-09-16T04:29:21.023Z,1.77
2022-09-16T04:31:49.745Z,1.47
2022-09-16T04:34:17.304Z,1.70
2022-09-16T04:36:44.810Z,2.10
2022-09-16T04:39:12.257Z,1.80
2022-09-16T04:41:39.895Z,1.70
2022-09-16T04:44:07.455Z,1.50
2022-09-16T04:46:34.979Z,1.70
2022-09-16T04:49:03.775Z,1.70
2022-09-16T04:51:32.264Z,1.40
2022-09-16T04:54:01.400Z,1.50
2022-09-16T04:56:30.190Z,1.77
2022-09-16T04:58:59.553Z,1.70
2022-09-16T05:01:27.900Z,2.00
2022-09-16T05:03:56.033Z,1.87
2022-09-16T05:06:25.500Z,1.70
2022-09-16T05:08:53.563Z,1.70
2022-09-16T05:11:22.417Z,2.03
2022-09-16T05:13:49.846Z,2.10
2022-09-16T05:16:18.357Z,1.87
2022-09-16T05:18:46.552Z,1.77
2022-09-16T05:21:16.994Z,2.20
2022-09-16T05:23:47.169Z,2.00
2022-09-16T05:26:15.742Z,1.93
2022-09-16T05:28:43.181Z,1.93
2022-09-16T05:31:11.809Z,1.90
2022-09-16T05:33:39.663Z,2.00
2022-09-16T05:36:07.891Z,1.70
2022-09-16T05:38:35.660Z,2.37
2022-09-16T05:41:05.124Z,2.10
2022-09-16T05:43:32.956Z,1.90
2022-09-16T05:46:01.211Z,2.20
2022-09-16T05:48:28.982Z,1.80
2022-09-16T05:50:57.562Z,1.70
2022-09-16T05:53:25.307Z,1.93
2022-09-16T05:55:56.557Z,1.97
2022-09-16T05:58:25.567Z,1.83
2022-09-16T06:00:53.257Z,1.90
2022-09-16T06:03:21.083Z,1.83
2022-09-16T06:05:48.487Z,1.93
2022-09-16T06:08:15.843Z,2.47
2022-09-16T06:10:43.586Z,3.17
2022-09-16T06:13:10.983Z,2.33
2022-09-16T06:15:39.692Z,2.10
2022-09-16T06:18:07.149Z,2.60
2022-09-16T06:20:34.537Z,2.30
2022-09-16T06:23:02.128Z,2.47
2022-09-16T06:25:29.608Z,2.40
2022-09-16T06:27:56.981Z,1.90
2022-09-16T06:30:26.108Z,1.80
2022-09-16T06:32:58.035Z,2.00
2022-09-16T06:35:25.432Z,1.87
2022-09-16T06:37:52.852Z,1.90
2022-09-16T06:40:20.309Z,2.00
2022-09-16T06:42:47.956Z,1.90
2022-09-16T06:45:15.331Z,2.00
2022-09-16T06:47:42.744Z,1.70
2022-09-16T06:50:11.711Z,1.73
2022-09-16T06:52:39.104Z,1.90
2022-09-16T06:55:06.807Z,2.23
2022-09-16T06:57:34.243Z,2.10
2022-09-16T07:00:01.692Z,1.63
2022-09-16T07:02:31.152Z,1.70
2022-09-16T07:04:58.573Z,2.47
2022-09-16T07:07:30.492Z,1.80
2022-09-16T07:09:58.685Z,1.87
2022-09-16T07:12:26.111Z,1.70
2022-09-16T07:14:53.920Z,1.90
2022-09-16T07:17:23.668Z,1.77
2022-09-16T07:19:51.044Z,1.73
2022-09-16T07:22:18.446Z,1.53
2022-09-16T07:24:47.210Z,2.00
2022-09-16T07:27:14.618Z,2.23
2022-09-16T07:29:42.020Z,1.83
2022-09-16T07:32:09.863Z,1.60
2022-09-16T07:34:37.504Z,2.20
2022-09-16T07:37:04.845Z,1.70
2022-09-16T07:39:32.208Z,2.00
2022-09-16T07:42:05.856Z,1.90
2022-09-16T07:44:33.735Z,1.60
2022-09-16T07:47:01.117Z,2.00
2022-09-16T07:49:28.515Z,1.73
2022-09-16T07:51:55.905Z,1.53
2022-09-16T07:54:23.357Z,1.77
2022-09-16T07:56:50.785Z,1.80
2022-09-16T07:59:20.219Z,2.00
2022-09-16T08:01:48.285Z,2.10
2022-09-16T08:04:15.978Z,1.80
2022-09-16T08:06:43.458Z,1.80
2022-09-16T08:09:36.738Z,1.63
2022-09-16T08:11:58.352Z,1.80
2022-09-16T08:14:27.091Z,1.63
2022-09-16T08:16:54.544Z,1.63
2022-09-16T08:19:22.782Z,1.60
2022-09-16T08:21:50.197Z,2.23
2022-09-16T08:24:17.916Z,1.57
2022-09-16T08:26:45.332Z,1.80
2022-09-16T08:29:12.949Z,1.50
2022-09-16T08:31:41.851Z,1.27
2022-09-16T08:34:09.230Z,1.70
2022-09-16T08:36:36.676Z,1.50
2022-09-16T08:39:04.230Z,1.33
2022-09-16T08:41:42.769Z,1.40
2022-09-16T08:44:15.638Z,1.30
2022-09-16T08:46:50.138Z,1.40
2022-09-16T08:49:19.376Z,1.50
2022-09-16T08:51:47.549Z,1.53
2022-09-16T08:54:19.479Z,1.53
2022-09-16T08:56:49.609Z,1.83
2022-09-16T08:59:20.968Z,1.40
2022-09-16T09:01:51.730Z,1.23
2022-09-16T09:04:19.483Z,1.40
2022-09-16T09:06:55.705Z,1.60
2022-09-16T09:09:32.030Z,1.50
2022-09-16T09:12:04.700Z,2.30
2022-09-16T09:14:37.685Z,1.93
2022-09-16T09:17:08.645Z,1.60
2022-09-16T09:19:43.168Z,1.90
2022-09-16T09:22:14.719Z,1.77
2022-09-16T09:24:48.265Z,1.43
2022-09-16T09:27:16.778Z,1.27
2022-09-16T09:29:49.571Z,1.10
2022-09-16T09:32:22.088Z,1.47
2022-09-16T09:35:07.263Z,1.30
2022-09-16T09:37:44.285Z,1.70
2022-09-16T09:40:14.878Z,1.50
2022-09-16T09:42:44.309Z,1.70
2022-09-16T09:45:14.680Z,1.90
2022-09-16T09:47:47.124Z,1.33
2022-09-16T09:50:17.567Z,1.77
2022-09-16T09:52:48.404Z,1.40
2022-09-16T09:55:17.702Z,1.30
2022-09-16T09:58:00.010Z,1.23
2022-09-16T10:00:27.543Z,1.50
2022-09-16T10:03:03.950Z,1.17
2022-09-16T10:05:31.509Z,0.97
2022-09-16T10:08:00.315Z,1.10
2022-09-16T10:10:29.872Z,1.07
2022-09-16T10:13:07.315Z,1.00
2022-09-16T10:15:34.736Z,1.10
2022-09-16T10:18:09.866Z,1.10
2022-09-16T10:20:38.466Z,0.80
2022-09-16T10:23:07.035Z,1.10
2022-09-16T10:25:34.661Z,1.27
2022-09-16T10:28:03.349Z,1.10
2022-09-16T10:30:34.183Z,1.13
2022-09-16T10:33:04.359Z,1.20
2022-09-16T10:35:32.609Z,1.10
2022-09-16T10:38:02.181Z,1.00
2022-09-16T10:40:29.866Z,1.23
2022-09-16T10:42:59.609Z,0.93
2022-09-16T10:45:28.301Z,1.00
2022-09-16T10:47:57.313Z,1.30
2022-09-16T10:50:26.474Z,1.30
2022-09-16T10:52:54.146Z,1.40
2022-09-16T10:55:23.342Z,1.20
2022-09-16T10:57:51.187Z,1.10
2022-09-16T11:00:19.431Z,1.17
2022-09-16T11:03:08.307Z,1.43
2022-09-16T11:05:41.303Z,1.20
2022-09-16T11:08:13.963Z,1.20
2022-09-16T11:10:45.202Z,1.70
2022-09-16T11:13:19.943Z,1.20
2022-09-16T11:15:53.292Z,1.27
2022-09-16T11:18:26.539Z,1.30
2022-09-16T11:21:00.927Z,1.00
2022-09-16T11:23:35.379Z,1.10
2022-09-16T11:26:06.720Z,1.07
2022-09-16T11:28:39.644Z,1.13
2022-09-16T11:31:11.774Z,1.20
2022-09-16T11:33:43.094Z,1.20
2022-09-16T11:36:24.919Z,0.90
2022-09-16T11:38:58.268Z,1.00
2022-09-16T11:41:30.809Z,1.00
2022-09-16T11:44:02.200Z,1.00
2022-09-16T11:46:34.365Z,1.20
2022-09-16T11:49:07.056Z,0.90
2022-09-16T11:51:44.049Z,1.00
2022-09-16T11:54:17.904Z,1.20
2022-09-16T11:56:47.682Z,1.03
2022-09-16T11:59:19.562Z,1.10
2022-09-16T12:01:49.634Z,1.27
2022-09-16T12:04:20.257Z,1.00
2022-09-16T12:06:53.526Z,0.83
2022-09-16T12:09:23.668Z,0.83
2022-09-16T12:11:52.815Z,0.80
2022-09-16T12:14:23.090Z,0.70
2022-09-16T12:16:53.355Z,0.70
2022-09-16T12:19:23.533Z,0.63
2022-09-16T12:21:57.889Z,0.90
2022-09-16T12:24:31.968Z,0.80
2022-09-16T12:27:02.907Z,0.90
2022-09-16T12:29:34.243Z,0.70
2022-09-16T12:32:05.107Z,0.60
2022-09-16T12:34:34.370Z,0.80
2022-09-16T12:37:06.073Z,0.90
2022-09-16T12:39:34.294Z,0.93
2022-09-16T12:42:18.025Z,1.07
2022-09-16T12:45:00.847Z,0.80
2022-09-16T12:47:38.212Z,0.80
2022-09-16T12:50:20.532Z,0.90
2022-09-16T12:53:07.048Z,1.17
2022-09-16T12:55:44.596Z,1.00
2022-09-16T12:58:29.149Z,1.10
2022-09-16T13:00:58.534Z,1.30
2022-09-16T13:03:28.645Z,1.07
2022-09-16T13:05:57.084Z,1.00
2022-09-16T13:08:27.125Z,0.97
2022-09-16T13:11:19.285Z,0.90
2022-09-16T13:13:48.459Z,0.80
2022-09-16T13:16:15.932Z,1.00
2022-09-16T13:18:44.697Z,0.90
2022-09-16T13:21:21.995Z,0.70
2022-09-16T13:23:53.324Z,0.83
2022-09-16T13:26:20.738Z,0.80
2022-09-16T13:28:48.832Z,1.10
2022-09-16T13:31:20.585Z,1.10
2022-09-16T13:33:48.870Z,1.57
2022-09-16T13:36:18.295Z,1.00
2022-09-16T13:38:46.987Z,1.10
2022-09-16T13:41:15.774Z,1.13
2022-09-16T13:43:53.317Z,1.10
2022-09-16T13:46:28.552Z,1.20
2022-09-16T13:48:57.421Z,1.40
2022-09-16T13:51:24.882Z,1.13
2022-09-16T13:53:53.099Z,1.10
2022-09-16T13:56:37.506Z,1.17
2022-09-16T13:59:11.062Z,1.07
2022-09-16T14:01:58.410Z,1.20
2022-09-16T14:04:33.235Z,1.07
2022-09-16T14:07:05.648Z,1.40
2022-09-16T14:09:42.882Z,1.17
2022-09-16T14:12:18.760Z,1.20
2022-09-16T14:14:48.246Z,1.27
2022-09-16T14:17:17.478Z,1.10
2022-09-16T14:19:46.737Z,1.20
2022-09-16T14:22:15.264Z,1.00
2022-09-16T14:24:43.372Z,0.90
2022-09-16T14:27:21.008Z,0.90
2022-09-16T14:29:54.886Z,0.90
2022-09-16T14:32:23.266Z,1.00
2022-09-16T14:34:52.619Z,0.80
2022-09-16T14:37:20.641Z,0.90
2022-09-16T14:39:53.183Z,1.00
2022-09-16T14:42:24.327Z,1.00
2022-09-16T14:44:53.395Z,0.90
2022-09-16T14:47:39.799Z,0.90
2022-09-16T14:50:14.678Z,0.90
2022-09-16T14:52:42.178Z,1.00
2022-09-16T14:55:15.428Z,1.07
2022-09-16T14:57:44.245Z,0.90
2022-09-16T15:00:15.716Z,0.90
2022-09-16T15:02:44.965Z,0.97
2022-09-16T15:05:16.836Z,1.10
2022-09-16T15:08:02.568Z,1.07
2022-09-16T15:10:44.595Z,1.17
2022-09-16T15:13:21.348Z,1.40
2022-09-16T15:15:50.282Z,0.90
2022-09-16T15:18:22.099Z,1.10
2022-09-16T15:20:51.564Z,1.20
2022-09-16T15:23:21.489Z,1.10
2022-09-16T15:25:53.650Z,1.03
2022-09-16T15:28:22.377Z,1.00
2022-09-16T15:30:51.432Z,1.10
2022-09-16T15:33:29.851Z,1.10
2022-09-16T15:36:01.595Z,1.30
2022-09-16T15:38:29.513Z,1.00
2022-09-16T15:41:04.213Z,0.90
2022-09-16T15:43:36.209Z,1.00
2022-09-16T15:46:04.452Z,0.87
2022-09-16T15:48:33.083Z,0.90
2022-09-16T15:51:01.897Z,0.90
2022-09-16T15:53:37.701Z,0.80
2022-09-16T15:56:07.570Z,1.37
2022-09-16T15:58:41.840Z,0.90
2022-09-16T16:01:14.930Z,1.10
2022-09-16T16:03:54.538Z,0.90
2022-09-16T16:06:22.363Z,0.90
2022-09-16T16:08:50.540Z,1.00
2022-09-16T16:11:19.089Z,0.70
2022-09-16T16:13:50.055Z,1.07
2022-09-16T16:16:18.129Z,0.97
2022-09-16T16:18:46.363Z,1.00
2022-09-16T16:21:15.747Z,1.30
2022-09-16T16:23:43.407Z,0.97
2022-09-16T16:26:11.785Z,1.13
2022-09-16T16:28:39.371Z,1.20
2022-09-16T16:31:12.124Z,1.00
2022-09-16T16:33:44.576Z,0.90
2022-09-16T16:36:12.869Z,1.13
2022-09-16T16:38:40.761Z,1.00
2022-09-16T16:41:09.102Z,1.00
2022-09-16T16:43:36.642Z,1.40
2022-09-16T16:46:04.051Z,2.07
2022-09-16T16:48:32.942Z,0.90
2022-09-16T16:51:01.192Z,1.20
2022-09-16T16:53:28.882Z,1.00
2022-09-16T16:55:56.304Z,1.00
2022-09-16T16:58:23.675Z,1.00
2022-09-16T17:00:52.129Z,1.10
2022-09-16T17:03:19.483Z,1.00
2022-09-16T17:05:48.197Z,1.07
2022-09-16T17:08:15.853Z,1.00
2022-09-16T17:10:44.656Z,1.00
2022-09-16T17:13:12.079Z,1.10
2022-09-16T17:15:39.514Z,1.10
2022-09-16T17:18:06.964Z,1.10
2022-09-16T17:20:34.322Z,1.10
2022-09-16T17:23:03.032Z,0.80
2022-09-16T17:25:30.746Z,1.10
2022-09-16T17:27:58.685Z,1.10
2022-09-16T17:30:26.040Z,1.20
2022-09-16T17:32:53.421Z,1.07
2022-09-16T17:35:20.968Z,1.30
2022-09-16T17:37:48.320Z,1.07
2022-09-16T17:40:17.857Z,1.20
2022-09-16T17:42:45.455Z,1.20
2022-09-16T17:45:12.790Z,0.97
2022-09-16T17:47:40.272Z,0.97
2022-09-16T17:50:08.134Z,1.17
2022-09-16T17:52:35.628Z,1.30
2022-09-16T17:55:03.011Z,1.40
2022-09-16T17:57:33.322Z,1.20
2022-09-16T18:00:01.137Z,1.10
2022-09-16T18:02:28.587Z,1.30
2022-09-16T18:04:56.101Z,1.30
2022-09-16T18:07:23.540Z,1.47
2022-09-16T18:09:50.944Z,1.33
2022-09-16T18:12:18.400Z,1.30
2022-09-16T18:14:47.137Z,1.20
2022-09-16T18:17:14.591Z,1.03
2022-09-16T18:19:42.001Z,1.30
2022-09-16T18:22:09.351Z,1.20
2022-09-16T18:24:36.741Z,1.40
2022-09-16T18:27:04.109Z,1.50
2022-09-16T18:29:31.527Z,1.20
2022-09-16T18:32:00.282Z,1.10
2022-09-16T18:34:32.636Z,1.53
2022-09-16T18:37:00.957Z,1.10
2022-09-16T18:39:28.294Z,1.10
2022-09-16T18:41:56.125Z,1.07
2022-09-16T18:44:24.530Z,1.17
2022-09-16T18:46:52.529Z,1.40
2022-09-16T18:49:22.163Z,1.03
2022-09-16T18:51:51.994Z,1.30
2022-09-16T18:54:24.372Z,1.00
2022-09-16T18:56:51.823Z,1.27
2022-09-16T18:59:22.732Z,1.47
2022-09-16T19:01:51.348Z,1.50
2022-09-16T19:04:19.633Z,1.27
2022-09-16T19:06:49.838Z,1.40
2022-09-16T19:09:17.786Z,1.20
2022-09-16T19:11:45.143Z,1.27
2022-09-16T19:14:13.807Z,1.57
2022-09-16T19:16:41.487Z,1.30
2022-09-16T19:19:09.374Z,1.33
2022-09-16T19:21:37.195Z,1.40
2022-09-16T19:24:07.617Z,1.37
2022-09-16T19:26:36.232Z,1.50
2022-09-16T19:29:03.679Z,1.43
2022-09-16T19:31:31.882Z,1.50
2022-09-16T19:33:59.970Z,1.33
2022-09-16T19:36:28.282Z,1.40
2022-09-16T19:38:56.378Z,1.80
2022-09-16T19:41:26.148Z,1.40
2022-09-16T19:43:54.356Z,1.50
2022-09-16T19:46:21.874Z,1.90
2022-09-16T19:48:49.811Z,2.00
2022-09-16T19:51:18.289Z,1.80
2022-09-16T19:53:46.648Z,1.37
2022-09-16T19:56:15.303Z,1.90
2022-09-16T19:58:44.204Z,1.50
2022-09-16T20:01:12.623Z,1.87
2022-09-16T20:03:41.286Z,1.40
2022-09-16T20:06:09.471Z,1.30
2022-09-16T20:08:37.789Z,1.47
2022-09-16T20:11:05.815Z,1.57
2022-09-16T20:13:34.091Z,1.20
2022-09-16T20:16:03.162Z,1.63
2022-09-16T20:18:31.002Z,2.07
2022-09-16T20:21:01.993Z,1.60
2022-09-16T20:23:29.563Z,1.50
2022-09-16T20:25:57.513Z,1.50
2022-09-16T20:28:24.973Z,1.60
2022-09-16T20:30:53.070Z,1.70
2022-09-16T20:33:21.842Z,1.63
2022-09-16T20:35:49.618Z,1.73
2022-09-16T20:38:17.161Z,1.57
2022-09-16T20:40:44.911Z,1.50
2022-09-16T20:43:12.502Z,1.90
2022-09-16T20:45:40.054Z,1.50
2022-09-16T20:48:07.632Z,1.77
2022-09-16T20:50:39.160Z,1.50
2022-09-16T20:53:06.578Z,1.60
2022-09-16T20:55:34.227Z,1.40
2022-09-16T20:58:01.606Z,1.50
2022-09-16T21:00:29.280Z,1.30
2022-09-16T21:02:57.232Z,1.60
2022-09-16T21:05:24.596Z,1.50
2022-09-16T21:07:53.330Z,1.53
2022-09-16T21:10:21.036Z,1.20
2022-09-16T21:12:48.669Z,1.70
2022-09-16T21:15:16.252Z,1.53
2022-09-16T21:17:43.648Z,1.20
2022-09-16T21:20:11.243Z,1.10
2022-09-16T21:22:38.842Z,1.77
2022-09-16T21:25:08.089Z,1.50
2022-09-16T21:27:35.987Z,1.43
2022-09-16T21:30:03.662Z,1.40
2022-09-16T21:32:31.924Z,1.30
2022-09-16T21:34:59.498Z,1.53
2022-09-16T21:37:26.898Z,1.40
2022-09-16T21:39:54.317Z,1.80
2022-09-16T21:42:23.124Z,1.63
2022-09-16T21:44:50.479Z,1.67
2022-09-16T21:47:17.879Z,1.50
2022-09-16T21:49:45.273Z,1.37
2022-09-16T21:52:12.661Z,1.53
2022-09-16T21:54:40.005Z,1.30
2022-09-16T21:57:07.372Z,1.70
2022-09-16T21:59:36.104Z,1.50
2022-09-16T22:02:03.998Z,2.20
2022-09-16T22:04:31.539Z,1.60
2022-09-16T22:06:58.883Z,2.00
2022-09-16T22:09:26.293Z,1.60
2022-09-16T22:11:53.747Z,1.50
2022-09-16T22:14:21.170Z,1.60
2022-09-16T22:16:49.860Z,1.60
2022-09-16T22:19:18.363Z,1.67
2022-09-16T22:21:47.142Z,1.63
2022-09-16T22:24:16.047Z,1.30
2022-09-16T22:26:44.214Z,1.50
2022-09-16T22:29:12.706Z,1.60
2022-09-16T22:31:41.379Z,1.30
2022-09-16T22:34:10.375Z,1.70
2022-09-16T22:36:38.392Z,2.37
2022-09-16T22:39:06.902Z,1.70
2022-09-16T22:41:34.706Z,1.60
2022-09-16T22:44:02.304Z,1.50
2022-09-16T22:46:30.608Z,1.60
2022-09-16T22:48:59.023Z,1.70
2022-09-16T22:51:28.812Z,1.60
2022-09-16T22:53:56.551Z,1.47
2022-09-16T22:56:25.076Z,1.60
2022-09-16T22:58:52.881Z,1.80
2022-09-16T23:01:22.464Z,1.70
2022-09-16T23:03:52.857Z,1.60
2022-09-16T23:06:20.416Z,1.60
2022-09-16T23:08:49.122Z,1.50
2022-09-16T23:11:17.935Z,1.57
2022-09-16T23:13:45.618Z,1.53
2022-09-16T23:16:15.103Z,1.57
2022-09-16T23:18:43.068Z,1.43
2022-09-16T23:21:11.302Z,1.60
2022-09-16T23:23:39.975Z,1.80
2022-09-16T23:26:09.859Z,1.60
2022-09-16T23:28:37.352Z,1.60
2022-09-16T23:31:06.322Z,1.80
2022-09-16T23:33:33.989Z,1.43
2022-09-16T23:36:01.780Z,1.50
2022-09-16T23:38:29.517Z,1.60
2022-09-16T23:40:56.947Z,1.63
2022-09-16T23:43:26.413Z,1.60
2022-09-16T23:45:53.891Z,1.30
2022-09-16T23:48:21.271Z,1.60
2022-09-16T23:50:48.616Z,1.77
2022-09-16T23:53:15.980Z,1.83
2022-09-16T23:55:43.590Z,1.53
2022-09-16T23:58:11.392Z,1.63
